Flight Track Log - Related Links

Times and Time Zones

All times are in EDT time to prevent confusion due to time zone crossing. See the ASQ6115 flight status page for this flight to view local times or setup timezone preferences in your user account.

Time Position Orientation Groundspeed Altitude Reporting Facility
EDT Latitude Longitude Course Direction KTS MPH feet Rate Location/Type
Tue 03:45:39 PM 26.1669 -98.1939 79° East 194 223 2,200  Level Houston Center
Tue 03:46:41 PM 26.2164 -98.1458 41° Northeast 215 247 4,500 2,274 Climbing Houston Center
Tue 03:47:43 PM 26.2722 -98.0961 39° Northeast 250 288 6,900 2,323 Climbing Houston Center
Tue 03:48:00 PM 26.4379 -98.1061 24° Northeast  Level FlightAware
Tue 03:48:45 PM 26.3328 -98.0408 39° Northeast 260 299 9,300  Level Houston Center
Tue 03:49:00 PM 26.5051 -98.0725 24° Northeast  Level FlightAware
Tue 03:49:48 PM 26.3908 -97.9828 42° Northeast 275 316 11,100  Level Houston Center
Tue 03:50:00 PM 26.5726 -98.0399 22° Northeast  Level FlightAware
Tue 03:50:50 PM 26.4517 -97.9206 42° Northeast 292 336 12,700  Level Houston Center
Tue 03:51:52 PM 26.5194 -97.8497 43° Northeast 306 352 14,400 1,500 Climbing Houston Center
Tue 03:52:54 PM 26.5914 -97.7917 36° Northeast 330 380 15,800 1,306 Climbing Houston Center
Tue 03:53:56 PM 26.6892 -97.7675 12° North 335 386 17,100 1,161 Climbing Houston Center
Tue 03:54:58 PM 26.7839 -97.7417 14° North 348 400 18,200 1,210 Climbing Houston Center
Tue 03:56:00 PM 26.8889 -97.7158 12° North 358 412 19,600 1,248 Climbing Houston Center
Tue 03:57:03 PM 26.9886 -97.6883 14° North 368 423 20,800 1,200 Climbing Houston Center
Tue 03:58:05 PM 27.0986 -97.6583 14° North 378 435 22,100 1,161 Climbing Houston Center
Tue 03:59:07 PM 27.1881 -97.6364 12° North 364 419 23,200 1,113 Climbing Houston Center
Tue 04:00:09 PM 27.2919 -97.6064 14° North 377 434 24,400 871 Climbing Houston Center
Tue 04:01:11 PM 27.4092 -97.5397 27° Northeast 394 453 25,000 290 Climbing Houston Center
Tue 04:02:13 PM 27.5117 -97.4744 29° Northeast 420 483 25,000  Level Houston Center
Tue 04:03:15 PM 27.6208 -97.4056 29° Northeast 443 510 25,000  Level Houston Center
Tue 04:04:17 PM 27.7319 -97.3350 29° Northeast 455 524 25,000  Level Houston Center
Tue 04:05:20 PM 27.8467 -97.2639 29° Northeast 464 534 25,000  Level Houston Center
Tue 04:06:22 PM 27.9650 -97.1869 30° Northeast 466 536 25,000  Level Houston Center
Tue 04:07:24 PM 28.0808 -97.1147 29° Northeast 473 544 25,000  Level Houston Center
Tue 04:08:26 PM 28.2183 -97.0261 30° Northeast 475 547 25,000  Level Houston Center
Tue 04:09:28 PM 28.3328 -96.9531 29° Northeast 473 544 25,000  Level Houston Center
Tue 04:10:30 PM 28.4464 -96.8806 29° Northeast 470 541 25,000  Level Houston Center
Tue 04:11:32 PM 28.5611 -96.8072 29° Northeast 473 544 25,000 -336 Level Houston Center
Tue 04:12:35 PM 28.6747 -96.7333 30° Northeast 473 544 24,300 -720 Descending Houston Center
Tue 04:13:37 PM 28.8097 -96.6469 29° Northeast 465 535 23,500 -1,065 Descending Houston Center
Tue 04:14:39 PM 28.9183 -96.5761 30° Northeast 457 526 22,100 -1,355 Descending Houston Center
Tue 04:15:41 PM 29.0247 -96.5078 29° Northeast 443 510 20,700 -1,403 Descending Houston Center
Tue 04:16:43 PM 29.1306 -96.4378 30° Northeast 445 512 19,200 -1,742 Descending Houston Center
Tue 04:17:45 PM 29.2536 -96.3592 29° Northeast 426 490 17,100 -2,098 Descending Houston Center
Tue 04:18:46 PM 29.3489 -96.2964 30° Northeast 414 476 14,900 -2,160 Descending Houston Center
Tue 04:19:50 PM 29.4436 -96.2336 30° Northeast 389 448 12,600 -1,776 Descending Houston Center
Tue 04:20:24 PM 29.4814 -96.1764 53° Northeast 345 397 12,000 -677 Descending Houston Center
Tue 04:20:52 PM 29.4867 -96.1433 80° East 334 384 11,900 -295 Descending Houston Center
Tue 04:21:25 PM 29.4936 -96.0742 83° East 318 366 11,700 -581 Descending Houston Center
Tue 04:21:54 PM 29.4983 -96.0369 82° East 335 386 11,300 -1,343 Descending Houston Center
Tue 04:22:32 PM 29.5169 -95.9564 75° East 336 387 10,200 -1,258 Descending Houston Center
Tue 04:22:56 PM 29.5344 -95.9289 54° Northeast 327 376 10,000 -218 Descending Houston Center
Tue 04:23:27 PM 29.5667 -95.8786 54° Northeast 320 368 10,000  Level Houston Center
Tue 04:23:58 PM 29.5906 -95.8472 49° Northeast 324 373 10,000  Level Houston Center
Tue 04:24:34 PM 29.6347 -95.7914 48° Northeast 335 386 10,000  Level Houston Center
Tue 04:25:00 PM 29.6536 -95.7686 46° Northeast 331 381 10,000 -214 Level Houston Center
Tue 04:25:30 PM 29.6936 -95.7222 45° Northeast 325 374 9,800 -667 Descending Houston Center
Tue 04:26:03 PM 29.7164 -95.6942 47° Northeast 326 375 9,300 -1,475 Descending Houston Center
Tue 04:26:31 PM 29.7503 -95.6506 48° Northeast 298 343 8,300 -1,548 Descending Houston Center
Tue 04:27:05 PM 29.7697 -95.6253 48° Northeast 294 338 7,700 -1,612 Descending Houston Center
Tue 04:27:38 PM 29.8106 -95.5761 46° Northeast 283 326 6,500 -1,645 Descending Houston Center
Tue 04:28:07 PM 29.8350 -95.5458 47° Northeast 284 327 6,000 -492 Descending Houston Center
Tue 04:28:39 PM 29.8633 -95.5072 50° Northeast 278 320 6,000  Level Houston Center
Tue 04:29:09 PM 29.8872 -95.4789 46° Northeast 280 322 6,000  Level Houston Center
Tue 04:29:40 PM 29.8897 -95.4294 87° East 273 314 6,000  Level Houston Center
Tue 04:30:11 PM 29.8900 -95.3922 89° East 272 313 6,000  Level Houston Center
Tue 04:30:41 PM 29.8944 -95.3419 84° East 254 292 6,000  Level Houston Center
Tue 04:31:13 PM 29.8944 -95.3086 90° East 264 304 6,000  Level Houston Center
Tue 04:31:42 PM 29.8872 -95.2633 100° East 247 284 6,000  Level Houston Center
Tue 04:32:15 PM 29.8894 -95.2317 85° East 244 281 6,000  Level Houston Center
Tue 04:32:43 PM 29.8992 -95.1897 75° East 240 276 6,000  Level Houston Center
Tue 04:33:18 PM 29.8972 -95.1575 94° East 232 267 6,000 -358 Level Houston Center
Tue 04:33:50 PM 29.8956 -95.1056 92° East 226 260 5,600 -1,258 Descending Houston Center
Tue 04:34:20 PM 29.8975 -95.0700 86° East 227 261 4,700 -1,714 Descending Houston Center
Tue 04:34:39 PM 29.8961 -95.0453 94° East 225 259 4,200 -1,548 Descending Houston Center
Tue 04:35:22 PM 29.9100 -95.0025 69° East 230 265 3,100 -1,180 Descending Houston Center
Tue 04:35:40 PM 29.9319 -95.0000 North 230 265 3,000 -581 Descending Houston Center
Tue 04:36:24 PM 29.9547 -95.0306 311° West 211 243 2,500 -794 Descending Houston Center
Tue 04:36:48 PM 29.9664 -95.0536 300° West 191 220 2,100 -484 Descending Houston Center
Tue 04:37:26 PM 29.9792 -95.0856 295° West 201 231 2,000 -98 Descending Houston Center
Tue 04:37:49 PM 29.9786 -95.1172 269° West 196 226 2,000  Level Houston Center
Tue 04:38:28 PM 29.9781 -95.1464 269° West 196 226 2,000 109 Level Houston Center
Tue 04:38:44 PM 29.9772 -95.1706 268° West 188 216 2,100 -286 Climbing Houston Center
Tue 04:39:31 PM 29.9783 -95.2053 272° West 190 219 1,700 -511 Descending Houston Center

Login

Don't have an account? Register now (free) for customized features, flight alerts, and more!